sensor_id;sensor_type;location;lat;lon;timestamp;P1;durP1;ratioP1;P2;durP2;ratioP2
48363;SDS011;34170;54.364;18.582;2022-10-26T00:01:14;12.73;;;6.25;;
48363;SDS011;34170;54.364;18.582;2022-10-26T00:03:43;14.45;;;6.18;;
48363;SDS011;34170;54.364;18.582;2022-10-26T00:06:13;10.57;;;6.53;;
48363;SDS011;34170;54.364;18.582;2022-10-26T00:08:43;10.75;;;6.80;;
48363;SDS011;34170;54.364;18.582;2022-10-26T00:11:11;16.35;;;6.70;;
48363;SDS011;34170;54.364;18.582;2022-10-26T00:13:39;11.60;;;6.63;;
48363;SDS011;34170;54.364;18.582;2022-10-26T00:16:12;11.05;;;6.30;;
48363;SDS011;34170;54.364;18.582;2022-10-26T00:18:51;13.30;;;6.20;;
48363;SDS011;34170;54.364;18.582;2022-10-26T00:21:18;11.93;;;5.93;;
48363;SDS011;34170;54.364;18.582;2022-10-26T00:23:46;11.32;;;6.63;;
48363;SDS011;34170;54.364;18.582;2022-10-26T00:26:13;14.57;;;6.47;;
48363;SDS011;34170;54.364;18.582;2022-10-26T00:28:40;11.43;;;6.32;;
48363;SDS011;34170;54.364;18.582;2022-10-26T00:31:10;12.65;;;6.38;;
48363;SDS011;34170;54.364;18.582;2022-10-26T00:33:39;13.90;;;6.63;;
48363;SDS011;34170;54.364;18.582;2022-10-26T00:36:07;10.20;;;6.60;;
48363;SDS011;34170;54.364;18.582;2022-10-26T00:38:36;11.45;;;6.72;;
48363;SDS011;34170;54.364;18.582;2022-10-26T00:41:04;14.00;;;7.20;;
48363;SDS011;34170;54.364;18.582;2022-10-26T00:43:35;13.40;;;6.88;;
48363;SDS011;34170;54.364;18.582;2022-10-26T00:46:05;19.42;;;7.13;;
48363;SDS011;34170;54.364;18.582;2022-10-26T00:49:01;13.55;;;7.15;;
48363;SDS011;34170;54.364;18.582;2022-10-26T00:51:53;14.50;;;6.70;;
48363;SDS011;34170;54.364;18.582;2022-10-26T00:54:20;16.48;;;6.63;;
48363;SDS011;34170;54.364;18.582;2022-10-26T00:56:48;13.70;;;7.10;;
48363;SDS011;34170;54.364;18.582;2022-10-26T00:59:17;13.93;;;6.18;;
48363;SDS011;34170;54.364;18.582;2022-10-26T01:01:47;12.43;;;6.82;;
48363;SDS011;34170;54.364;18.582;2022-10-26T01:04:15;14.88;;;7.72;;
48363;SDS011;34170;54.364;18.582;2022-10-26T01:06:44;13.18;;;6.65;;
48363;SDS011;34170;54.364;18.582;2022-10-26T01:09:12;14.90;;;6.95;;
48363;SDS011;34170;54.364;18.582;2022-10-26T01:11:40;16.17;;;7.57;;
48363;SDS011;34170;54.364;18.582;2022-10-26T01:14:07;16.60;;;7.18;;
48363;SDS011;34170;54.364;18.582;2022-10-26T01:27:58;14.02;;;7.57;;
48363;SDS011;34170;54.364;18.582;2022-10-26T01:30:36;14.45;;;7.25;;
48363;SDS011;34170;54.364;18.582;2022-10-26T01:33:19;14.45;;;7.35;;
48363;SDS011;34170;54.364;18.582;2022-10-26T01:36:12;15.38;;;7.15;;
48363;SDS011;34170;54.364;18.582;2022-10-26T01:42:11;13.10;;;6.57;;
48363;SDS011;34170;54.364;18.582;2022-10-26T01:44:44;15.05;;;6.90;;
48363;SDS011;34170;54.364;18.582;2022-10-26T01:47:17;12.38;;;6.68;;
48363;SDS011;34170;54.364;18.582;2022-10-26T01:49:48;14.00;;;7.10;;
48363;SDS011;34170;54.364;18.582;2022-10-26T01:52:19;15.77;;;6.57;;
48363;SDS011;34170;54.364;18.582;2022-10-26T01:54:47;15.55;;;6.75;;
48363;SDS011;34170;54.364;18.582;2022-10-26T01:57:15;15.00;;;7.53;;
48363;SDS011;34170;54.364;18.582;2022-10-26T01:59:57;14.50;;;6.85;;
48363;SDS011;34170;54.364;18.582;2022-10-26T02:02:34;11.07;;;6.97;;
48363;SDS011;34170;54.364;18.582;2022-10-26T02:11:38;20.77;;;7.05;;
48363;SDS011;34170;54.364;18.582;2022-10-26T02:19:46;13.98;;;7.25;;
48363;SDS011;34170;54.364;18.582;2022-10-26T02:22:29;15.07;;;7.65;;
48363;SDS011;34170;54.364;18.582;2022-10-26T02:25:05;12.70;;;6.65;;
48363;SDS011;34170;54.364;18.582;2022-10-26T02:27:39;13.98;;;7.15;;
48363;SDS011;34170;54.364;18.582;2022-10-26T02:30:11;17.70;;;7.45;;
48363;SDS011;34170;54.364;18.582;2022-10-26T02:32:40;16.92;;;7.63;;
48363;SDS011;34170;54.364;18.582;2022-10-26T02:35:14;13.60;;;7.25;;
48363;SDS011;34170;54.364;18.582;2022-10-26T02:37:46;14.55;;;7.93;;
48363;SDS011;34170;54.364;18.582;2022-10-26T02:40:17;17.30;;;7.93;;
48363;SDS011;34170;54.364;18.582;2022-10-26T02:42:48;15.00;;;7.72;;
48363;SDS011;34170;54.364;18.582;2022-10-26T02:45:19;11.88;;;7.13;;
48363;SDS011;34170;54.364;18.582;2022-10-26T02:47:50;17.25;;;7.93;;
48363;SDS011;34170;54.364;18.582;2022-10-26T02:50:18;13.77;;;7.63;;
48363;SDS011;34170;54.364;18.582;2022-10-26T02:52:55;13.95;;;7.80;;
48363;SDS011;34170;54.364;18.582;2022-10-26T02:58:34;15.57;;;8.48;;
48363;SDS011;34170;54.364;18.582;2022-10-26T03:01:07;17.45;;;8.30;;
48363;SDS011;34170;54.364;18.582;2022-10-26T03:03:34;17.90;;;9.88;;
48363;SDS011;34170;54.364;18.582;2022-10-26T03:06:01;16.10;;;9.85;;
48363;SDS011;34170;54.364;18.582;2022-10-26T03:08:29;15.73;;;9.73;;
48363;SDS011;34170;54.364;18.582;2022-10-26T03:10:56;17.67;;;10.82;;
48363;SDS011;34170;54.364;18.582;2022-10-26T03:13:24;20.73;;;11.20;;
48363;SDS011;34170;54.364;18.582;2022-10-26T03:15:53;18.60;;;10.90;;
48363;SDS011;34170;54.364;18.582;2022-10-26T03:18:22;17.27;;;11.93;;
48363;SDS011;34170;54.364;18.582;2022-10-26T03:20:49;20.65;;;13.10;;
48363;SDS011;34170;54.364;18.582;2022-10-26T03:23:17;20.55;;;10.95;;
48363;SDS011;34170;54.364;18.582;2022-10-26T03:25:44;20.08;;;11.38;;
48363;SDS011;34170;54.364;18.582;2022-10-26T03:28:11;27.10;;;12.95;;
48363;SDS011;34170;54.364;18.582;2022-10-26T03:30:39;20.20;;;13.20;;
48363;SDS011;34170;54.364;18.582;2022-10-26T03:33:06;24.15;;;13.90;;
48363;SDS011;34170;54.364;18.582;2022-10-26T03:35:34;22.50;;;14.02;;
48363;SDS011;34170;54.364;18.582;2022-10-26T03:38:01;26.40;;;13.48;;
48363;SDS011;34170;54.364;18.582;2022-10-26T03:40:28;23.70;;;14.32;;
48363;SDS011;34170;54.364;18.582;2022-10-26T03:42:56;27.52;;;14.70;;
48363;SDS011;34170;54.364;18.582;2022-10-26T03:45:23;23.80;;;13.30;;
48363;SDS011;34170;54.364;18.582;2022-10-26T03:47:50;21.85;;;13.73;;
48363;SDS011;34170;54.364;18.582;2022-10-26T03:50:18;29.55;;;13.73;;
48363;SDS011;34170;54.364;18.582;2022-10-26T03:52:48;25.88;;;14.88;;
48363;SDS011;34170;54.364;18.582;2022-10-26T03:55:16;33.20;;;15.82;;
48363;SDS011;34170;54.364;18.582;2022-10-26T03:57:44;31.92;;;17.65;;
48363;SDS011;34170;54.364;18.582;2022-10-26T04:00:12;29.08;;;17.08;;
48363;SDS011;34170;54.364;18.582;2022-10-26T04:02:43;27.42;;;17.50;;
48363;SDS011;34170;54.364;18.582;2022-10-26T04:05:14;30.02;;;18.58;;
48363;SDS011;34170;54.364;18.582;2022-10-26T04:07:42;34.65;;;18.80;;
48363;SDS011;34170;54.364;18.582;2022-10-26T04:10:10;29.02;;;17.65;;
48363;SDS011;34170;54.364;18.582;2022-10-26T04:12:37;40.65;;;20.02;;
48363;SDS011;34170;54.364;18.582;2022-10-26T04:15:05;34.95;;;19.50;;
48363;SDS011;34170;54.364;18.582;2022-10-26T04:17:33;36.15;;;19.40;;
48363;SDS011;34170;54.364;18.582;2022-10-26T04:20:00;36.90;;;20.02;;
48363;SDS011;34170;54.364;18.582;2022-10-26T04:22:28;37.05;;;20.23;;
48363;SDS011;34170;54.364;18.582;2022-10-26T04:24:55;37.33;;;20.42;;
48363;SDS011;34170;54.364;18.582;2022-10-26T04:27:22;31.60;;;18.23;;
48363;SDS011;34170;54.364;18.582;2022-10-26T04:29:50;29.67;;;18.85;;
48363;SDS011;34170;54.364;18.582;2022-10-26T04:32:17;40.03;;;19.40;;
48363;SDS011;34170;54.364;18.582;2022-10-26T04:34:44;30.20;;;16.08;;
48363;SDS011;34170;54.364;18.582;2022-10-26T04:37:12;25.42;;;14.70;;
48363;SDS011;34170;54.364;18.582;2022-10-26T04:39:39;27.08;;;13.27;;
48363;SDS011;34170;54.364;18.582;2022-10-26T04:42:06;22.10;;;13.05;;
48363;SDS011;34170;54.364;18.582;2022-10-26T04:44:33;23.30;;;12.10;;
48363;SDS011;34170;54.364;18.582;2022-10-26T04:47:01;23.95;;;12.75;;
48363;SDS011;34170;54.364;18.582;2022-10-26T04:49:28;20.20;;;11.57;;
48363;SDS011;34170;54.364;18.582;2022-10-26T04:51:55;24.38;;;12.35;;
48363;SDS011;34170;54.364;18.582;2022-10-26T04:54:22;20.17;;;11.40;;
48363;SDS011;34170;54.364;18.582;2022-10-26T04:56:50;25.15;;;10.88;;
48363;SDS011;34170;54.364;18.582;2022-10-26T04:59:17;18.08;;;10.90;;
48363;SDS011;34170;54.364;18.582;2022-10-26T05:01:44;19.90;;;10.38;;
48363;SDS011;34170;54.364;18.582;2022-10-26T05:04:12;21.42;;;11.02;;
48363;SDS011;34170;54.364;18.582;2022-10-26T05:06:40;17.65;;;8.95;;
48363;SDS011;34170;54.364;18.582;2022-10-26T05:09:07;18.60;;;8.30;;
48363;SDS011;34170;54.364;18.582;2022-10-26T05:11:34;16.48;;;7.55;;
48363;SDS011;34170;54.364;18.582;2022-10-26T05:14:01;13.05;;;7.95;;
48363;SDS011;34170;54.364;18.582;2022-10-26T05:16:29;14.00;;;7.88;;
48363;SDS011;34170;54.364;18.582;2022-10-26T05:18:56;13.55;;;8.07;;
48363;SDS011;34170;54.364;18.582;2022-10-26T05:21:23;15.85;;;7.97;;
48363;SDS011;34170;54.364;18.582;2022-10-26T05:23:51;18.10;;;9.50;;
48363;SDS011;34170;54.364;18.582;2022-10-26T05:26:21;21.27;;;9.50;;
48363;SDS011;34170;54.364;18.582;2022-10-26T05:28:50;18.48;;;9.27;;
48363;SDS011;34170;54.364;18.582;2022-10-26T05:31:18;19.83;;;9.38;;
48363;SDS011;34170;54.364;18.582;2022-10-26T05:33:50;16.05;;;8.95;;
48363;SDS011;34170;54.364;18.582;2022-10-26T05:36:18;19.55;;;10.23;;
48363;SDS011;34170;54.364;18.582;2022-10-26T05:38:45;20.02;;;10.20;;
48363;SDS011;34170;54.364;18.582;2022-10-26T05:41:13;21.30;;;10.02;;
48363;SDS011;34170;54.364;18.582;2022-10-26T05:43:40;23.05;;;11.02;;
48363;SDS011;34170;54.364;18.582;2022-10-26T05:46:07;20.98;;;10.90;;
48363;SDS011;34170;54.364;18.582;2022-10-26T05:48:35;19.70;;;10.75;;
48363;SDS011;34170;54.364;18.582;2022-10-26T05:51:02;17.17;;;10.50;;
48363;SDS011;34170;54.364;18.582;2022-10-26T05:53:29;19.83;;;11.43;;
48363;SDS011;34170;54.364;18.582;2022-10-26T05:55:57;24.35;;;11.23;;
48363;SDS011;34170;54.364;18.582;2022-10-26T05:58:25;20.10;;;11.65;;
48363;SDS011;34170;54.364;18.582;2022-10-26T06:01:12;19.17;;;10.88;;
48363;SDS011;34170;54.364;18.582;2022-10-26T06:03:52;23.52;;;11.43;;
48363;SDS011;34170;54.364;18.582;2022-10-26T06:09:10;21.65;;;10.90;;
48363;SDS011;34170;54.364;18.582;2022-10-26T06:11:38;25.08;;;11.13;;
48363;SDS011;34170;54.364;18.582;2022-10-26T06:14:07;22.85;;;11.63;;
48363;SDS011;34170;54.364;18.582;2022-10-26T06:16:54;19.13;;;10.30;;
48363;SDS011;34170;54.364;18.582;2022-10-26T06:22:31;19.85;;;9.70;;
48363;SDS011;34170;54.364;18.582;2022-10-26T06:31:02;15.50;;;8.73;;
48363;SDS011;34170;54.364;18.582;2022-10-26T06:33:30;17.13;;;8.95;;
48363;SDS011;34170;54.364;18.582;2022-10-26T06:36:40;15.85;;;7.70;;
48363;SDS011;34170;54.364;18.582;2022-10-26T06:39:01;11.40;;;6.93;;
48363;SDS011;34170;54.364;18.582;2022-10-26T06:41:32;14.25;;;7.20;;
48363;SDS011;34170;54.364;18.582;2022-10-26T06:44:02;12.90;;;6.53;;
48363;SDS011;34170;54.364;18.582;2022-10-26T06:46:35;14.35;;;6.05;;
48363;SDS011;34170;54.364;18.582;2022-10-26T06:57:18;8.63;;;5.22;;
48363;SDS011;34170;54.364;18.582;2022-10-26T06:59:52;10.85;;;4.88;;
48363;SDS011;34170;54.364;18.582;2022-10-26T07:02:26;6.63;;;4.20;;
48363;SDS011;34170;54.364;18.582;2022-10-26T07:04:54;8.70;;;4.85;;
48363;SDS011;34170;54.364;18.582;2022-10-26T07:07:25;7.28;;;3.80;;
48363;SDS011;34170;54.364;18.582;2022-10-26T07:09:55;12.40;;;4.97;;
48363;SDS011;34170;54.364;18.582;2022-10-26T07:12:22;11.25;;;4.45;;
48363;SDS011;34170;54.364;18.582;2022-10-26T07:14:49;7.43;;;3.80;;
48363;SDS011;34170;54.364;18.582;2022-10-26T07:17:17;7.65;;;3.90;;
48363;SDS011;34170;54.364;18.582;2022-10-26T07:19:44;10.07;;;4.35;;
48363;SDS011;34170;54.364;18.582;2022-10-26T07:22:11;8.68;;;3.83;;
48363;SDS011;34170;54.364;18.582;2022-10-26T07:24:39;9.60;;;3.75;;
48363;SDS011;34170;54.364;18.582;2022-10-26T07:27:06;8.25;;;3.55;;
48363;SDS011;34170;54.364;18.582;2022-10-26T07:29:33;8.98;;;2.90;;
48363;SDS011;34170;54.364;18.582;2022-10-26T07:32:01;7.90;;;3.70;;
48363;SDS011;34170;54.364;18.582;2022-10-26T07:34:28;8.70;;;3.28;;
48363;SDS011;34170;54.364;18.582;2022-10-26T07:36:57;9.43;;;3.63;;
48363;SDS011;34170;54.364;18.582;2022-10-26T07:39:26;9.43;;;3.78;;
48363;SDS011;34170;54.364;18.582;2022-10-26T07:41:53;7.03;;;2.97;;
48363;SDS011;34170;54.364;18.582;2022-10-26T07:44:20;9.10;;;2.72;;
48363;SDS011;34170;54.364;18.582;2022-10-26T07:46:48;10.93;;;2.78;;
48363;SDS011;34170;54.364;18.582;2022-10-26T07:49:15;7.55;;;2.95;;
48363;SDS011;34170;54.364;18.582;2022-10-26T07:51:45;6.00;;;2.38;;
48363;SDS011;34170;54.364;18.582;2022-10-26T07:54:12;6.82;;;2.65;;
48363;SDS011;34170;54.364;18.582;2022-10-26T07:56:40;8.57;;;2.90;;
48363;SDS011;34170;54.364;18.582;2022-10-26T07:59:09;7.32;;;2.55;;
48363;SDS011;34170;54.364;18.582;2022-10-26T08:01:38;7.15;;;2.50;;
48363;SDS011;34170;54.364;18.582;2022-10-26T08:04:05;7.82;;;2.88;;
48363;SDS011;34170;54.364;18.582;2022-10-26T08:06:32;6.13;;;2.78;;
48363;SDS011;34170;54.364;18.582;2022-10-26T08:09:00;7.63;;;2.65;;
48363;SDS011;34170;54.364;18.582;2022-10-26T08:11:27;8.68;;;3.20;;
48363;SDS011;34170;54.364;18.582;2022-10-26T08:13:55;8.70;;;3.28;;
48363;SDS011;34170;54.364;18.582;2022-10-26T08:16:22;6.70;;;2.28;;
48363;SDS011;34170;54.364;18.582;2022-10-26T08:18:50;4.55;;;2.17;;
48363;SDS011;34170;54.364;18.582;2022-10-26T08:21:17;6.30;;;2.30;;
48363;SDS011;34170;54.364;18.582;2022-10-26T08:23:56;6.22;;;2.15;;
48363;SDS011;34170;54.364;18.582;2022-10-26T08:26:23;9.88;;;2.63;;
48363;SDS011;34170;54.364;18.582;2022-10-26T08:28:50;8.05;;;2.92;;
48363;SDS011;34170;54.364;18.582;2022-10-26T08:31:18;7.40;;;2.70;;
48363;SDS011;34170;54.364;18.582;2022-10-26T08:33:45;9.73;;;2.50;;
48363;SDS011;34170;54.364;18.582;2022-10-26T08:36:12;6.72;;;2.20;;
48363;SDS011;34170;54.364;18.582;2022-10-26T08:38:49;11.05;;;2.80;;
48363;SDS011;34170;54.364;18.582;2022-10-26T08:41:40;8.32;;;3.00;;
48363;SDS011;34170;54.364;18.582;2022-10-26T08:44:30;11.13;;;3.17;;
48363;SDS011;34170;54.364;18.582;2022-10-26T08:47:12;8.98;;;3.17;;
48363;SDS011;34170;54.364;18.582;2022-10-26T08:49:53;9.32;;;2.97;;
48363;SDS011;34170;54.364;18.582;2022-10-26T08:52:47;6.13;;;3.10;;
48363;SDS011;34170;54.364;18.582;2022-10-26T08:57:50;7.53;;;2.77;;
48363;SDS011;34170;54.364;18.582;2022-10-26T09:00:20;6.45;;;2.72;;
48363;SDS011;34170;54.364;18.582;2022-10-26T09:02:50;8.98;;;2.88;;
48363;SDS011;34170;54.364;18.582;2022-10-26T09:08:00;7.55;;;3.20;;
48363;SDS011;34170;54.364;18.582;2022-10-26T09:11:03;7.32;;;2.95;;
48363;SDS011;34170;54.364;18.582;2022-10-26T09:14:24;5.78;;;3.22;;
48363;SDS011;34170;54.364;18.582;2022-10-26T09:16:40;5.85;;;2.33;;
48363;SDS011;34170;54.364;18.582;2022-10-26T09:22:12;8.05;;;2.40;;
48363;SDS011;34170;54.364;18.582;2022-10-26T09:24:56;6.00;;;2.50;;
48363;SDS011;34170;54.364;18.582;2022-10-26T09:27:36;6.72;;;2.63;;
48363;SDS011;34170;54.364;18.582;2022-10-26T09:30:13;7.00;;;2.70;;
48363;SDS011;34170;54.364;18.582;2022-10-26T09:33:03;7.30;;;2.15;;
48363;SDS011;34170;54.364;18.582;2022-10-26T09:35:42;4.80;;;2.17;;
48363;SDS011;34170;54.364;18.582;2022-10-26T09:38:31;8.07;;;2.42;;
48363;SDS011;34170;54.364;18.582;2022-10-26T09:43:42;6.68;;;2.30;;
48363;SDS011;34170;54.364;18.582;2022-10-26T09:46:20;6.60;;;2.30;;
48363;SDS011;34170;54.364;18.582;2022-10-26T09:48:57;9.48;;;3.08;;
48363;SDS011;34170;54.364;18.582;2022-10-26T09:51:28;11.98;;;3.05;;
48363;SDS011;34170;54.364;18.582;2022-10-26T09:53:56;6.10;;;2.33;;
48363;SDS011;34170;54.364;18.582;2022-10-26T09:56:24;6.63;;;2.00;;
48363;SDS011;34170;54.364;18.582;2022-10-26T09:58:59;10.77;;;2.40;;
48363;SDS011;34170;54.364;18.582;2022-10-26T10:01:32;6.85;;;2.00;;
48363;SDS011;34170;54.364;18.582;2022-10-26T10:06:39;6.15;;;1.77;;
48363;SDS011;34170;54.364;18.582;2022-10-26T10:09:11;4.20;;;1.55;;
48363;SDS011;34170;54.364;18.582;2022-10-26T10:11:49;5.82;;;1.60;;
48363;SDS011;34170;54.364;18.582;2022-10-26T10:14:22;6.53;;;1.80;;
48363;SDS011;34170;54.364;18.582;2022-10-26T10:16:52;7.68;;;1.60;;
48363;SDS011;34170;54.364;18.582;2022-10-26T10:19:24;3.03;;;1.52;;
48363;SDS011;34170;54.364;18.582;2022-10-26T10:24:41;7.13;;;1.77;;
48363;SDS011;34170;54.364;18.582;2022-10-26T10:27:18;4.32;;;1.88;;
48363;SDS011;34170;54.364;18.582;2022-10-26T10:29:47;7.15;;;2.00;;
48363;SDS011;34170;54.364;18.582;2022-10-26T10:32:17;4.82;;;1.40;;
48363;SDS011;34170;54.364;18.582;2022-10-26T10:34:50;7.05;;;2.28;;
48363;SDS011;34170;54.364;18.582;2022-10-26T10:39:57;4.18;;;2.15;;
48363;SDS011;34170;54.364;18.582;2022-10-26T10:42:30;6.75;;;1.85;;
48363;SDS011;34170;54.364;18.582;2022-10-26T10:44:59;6.80;;;1.85;;
48363;SDS011;34170;54.364;18.582;2022-10-26T10:47:29;5.03;;;1.63;;
48363;SDS011;34170;54.364;18.582;2022-10-26T10:52:45;14.85;;;2.88;;
48363;SDS011;34170;54.364;18.582;2022-10-26T11:00:22;6.80;;;1.73;;
48363;SDS011;34170;54.364;18.582;2022-10-26T11:11:32;7.90;;;2.20;;
48363;SDS011;34170;54.364;18.582;2022-10-26T11:14:15;4.68;;;1.90;;
48363;SDS011;34170;54.364;18.582;2022-10-26T11:16:48;5.53;;;1.80;;
48363;SDS011;34170;54.364;18.582;2022-10-26T11:19:22;5.65;;;1.52;;
48363;SDS011;34170;54.364;18.582;2022-10-26T11:21:55;3.88;;;1.30;;
48363;SDS011;34170;54.364;18.582;2022-10-26T11:32:36;5.68;;;1.25;;
48363;SDS011;34170;54.364;18.582;2022-10-26T11:35:17;4.18;;;1.75;;
48363;SDS011;34170;54.364;18.582;2022-10-26T11:43:52;3.90;;;1.35;;
48363;SDS011;34170;54.364;18.582;2022-10-26T11:46:30;3.73;;;1.57;;
48363;SDS011;34170;54.364;18.582;2022-10-26T11:49:13;6.22;;;1.95;;
48363;SDS011;34170;54.364;18.582;2022-10-26T11:51:54;8.75;;;1.75;;
48363;SDS011;34170;54.364;18.582;2022-10-26T11:54:33;6.93;;;1.80;;
48363;SDS011;34170;54.364;18.582;2022-10-26T11:57:06;5.15;;;1.70;;
48363;SDS011;34170;54.364;18.582;2022-10-26T11:59:38;6.32;;;1.70;;
48363;SDS011;34170;54.364;18.582;2022-10-26T12:02:17;5.18;;;1.55;;
48363;SDS011;34170;54.364;18.582;2022-10-26T12:04:58;6.25;;;1.88;;
48363;SDS011;34170;54.364;18.582;2022-10-26T12:07:32;6.57;;;2.10;;
48363;SDS011;34170;54.364;18.582;2022-10-26T12:10:03;7.07;;;2.08;;
48363;SDS011;34170;54.364;18.582;2022-10-26T12:12:37;3.95;;;1.42;;
48363;SDS011;34170;54.364;18.582;2022-10-26T12:15:15;5.30;;;1.23;;
48363;SDS011;34170;54.364;18.582;2022-10-26T12:21:16;6.75;;;1.48;;
48363;SDS011;34170;54.364;18.582;2022-10-26T12:33:59;7.68;;;1.00;;
48363;SDS011;34170;54.364;18.582;2022-10-26T12:39:30;5.82;;;1.95;;
48363;SDS011;34170;54.364;18.582;2022-10-26T12:44:35;4.80;;;1.20;;
48363;SDS011;34170;54.364;18.582;2022-10-26T12:52:41;6.57;;;1.27;;
48363;SDS011;34170;54.364;18.582;2022-10-26T13:03:29;6.55;;;1.35;;
48363;SDS011;34170;54.364;18.582;2022-10-26T13:08:55;15.18;;;2.35;;
48363;SDS011;34170;54.364;18.582;2022-10-26T13:14:03;4.03;;;1.27;;
48363;SDS011;34170;54.364;18.582;2022-10-26T13:16:32;3.63;;;1.25;;
48363;SDS011;34170;54.364;18.582;2022-10-26T13:19:00;8.25;;;1.35;;
48363;SDS011;34170;54.364;18.582;2022-10-26T13:21:28;4.80;;;1.40;;
48363;SDS011;34170;54.364;18.582;2022-10-26T13:23:56;9.00;;;2.10;;
48363;SDS011;34170;54.364;18.582;2022-10-26T13:26:32;5.00;;;1.45;;
48363;SDS011;34170;54.364;18.582;2022-10-26T13:32:36;4.07;;;1.20;;
48363;SDS011;34170;54.364;18.582;2022-10-26T13:35:11;8.73;;;1.50;;
48363;SDS011;34170;54.364;18.582;2022-10-26T13:37:49;7.43;;;1.40;;
48363;SDS011;34170;54.364;18.582;2022-10-26T13:40:20;6.43;;;1.58;;
48363;SDS011;34170;54.364;18.582;2022-10-26T13:42:53;5.53;;;1.45;;
48363;SDS011;34170;54.364;18.582;2022-10-26T13:45:25;5.60;;;1.50;;
48363;SDS011;34170;54.364;18.582;2022-10-26T13:48:02;5.30;;;1.20;;
48363;SDS011;34170;54.364;18.582;2022-10-26T13:50:37;3.20;;;1.08;;
48363;SDS011;34170;54.364;18.582;2022-10-26T13:53:27;6.90;;;1.27;;
48363;SDS011;34170;54.364;18.582;2022-10-26T13:56:27;5.78;;;1.85;;
48363;SDS011;34170;54.364;18.582;2022-10-26T13:59:03;4.70;;;1.25;;
48363;SDS011;34170;54.364;18.582;2022-10-26T14:01:32;5.38;;;1.30;;
48363;SDS011;34170;54.364;18.582;2022-10-26T14:04:13;5.72;;;1.40;;
48363;SDS011;34170;54.364;18.582;2022-10-26T14:06:54;5.88;;;1.70;;
48363;SDS011;34170;54.364;18.582;2022-10-26T14:09:21;7.70;;;1.88;;
48363;SDS011;34170;54.364;18.582;2022-10-26T14:11:52;8.35;;;2.22;;
48363;SDS011;34170;54.364;18.582;2022-10-26T14:14:25;5.57;;;1.60;;
48363;SDS011;34170;54.364;18.582;2022-10-26T14:16:57;5.15;;;1.52;;
48363;SDS011;34170;54.364;18.582;2022-10-26T14:19:26;6.63;;;1.40;;
48363;SDS011;34170;54.364;18.582;2022-10-26T14:21:56;8.13;;;2.13;;
48363;SDS011;34170;54.364;18.582;2022-10-26T14:24:31;5.82;;;1.55;;
48363;SDS011;34170;54.364;18.582;2022-10-26T14:27:15;6.35;;;2.20;;
48363;SDS011;34170;54.364;18.582;2022-10-26T14:29:43;14.45;;;4.13;;
48363;SDS011;34170;54.364;18.582;2022-10-26T14:32:20;4.55;;;1.38;;
48363;SDS011;34170;54.364;18.582;2022-10-26T14:34:48;12.55;;;2.67;;
48363;SDS011;34170;54.364;18.582;2022-10-26T14:37:21;6.10;;;2.03;;
48363;SDS011;34170;54.364;18.582;2022-10-26T14:39:56;8.35;;;2.90;;
48363;SDS011;34170;54.364;18.582;2022-10-26T14:42:31;7.28;;;2.47;;
48363;SDS011;34170;54.364;18.582;2022-10-26T14:45:00;5.70;;;2.17;;
48363;SDS011;34170;54.364;18.582;2022-10-26T14:47:32;7.05;;;2.47;;
48363;SDS011;34170;54.364;18.582;2022-10-26T14:50:02;8.32;;;2.42;;
48363;SDS011;34170;54.364;18.582;2022-10-26T14:52:31;5.63;;;1.95;;
48363;SDS011;34170;54.364;18.582;2022-10-26T14:57:41;6.05;;;2.13;;
48363;SDS011;34170;54.364;18.582;2022-10-26T15:00:17;8.27;;;2.08;;
48363;SDS011;34170;54.364;18.582;2022-10-26T15:02:46;8.32;;;2.33;;
48363;SDS011;34170;54.364;18.582;2022-10-26T15:08:01;8.40;;;2.63;;
48363;SDS011;34170;54.364;18.582;2022-10-26T15:10:50;8.40;;;1.92;;
48363;SDS011;34170;54.364;18.582;2022-10-26T15:15:54;9.18;;;2.60;;
48363;SDS011;34170;54.364;18.582;2022-10-26T15:18:28;7.63;;;2.10;;
48363;SDS011;34170;54.364;18.582;2022-10-26T15:20:58;6.30;;;2.38;;
48363;SDS011;34170;54.364;18.582;2022-10-26T15:23:26;6.35;;;2.03;;
48363;SDS011;34170;54.364;18.582;2022-10-26T15:25:56;10.25;;;2.80;;
48363;SDS011;34170;54.364;18.582;2022-10-26T15:33:38;7.10;;;2.08;;
48363;SDS011;34170;54.364;18.582;2022-10-26T15:36:12;6.25;;;2.42;;
48363;SDS011;34170;54.364;18.582;2022-10-26T15:38:44;7.75;;;2.20;;
48363;SDS011;34170;54.364;18.582;2022-10-26T15:43:49;5.07;;;2.15;;
48363;SDS011;34170;54.364;18.582;2022-10-26T15:46:18;7.10;;;3.03;;
48363;SDS011;34170;54.364;18.582;2022-10-26T15:48:46;7.07;;;2.53;;
48363;SDS011;34170;54.364;18.582;2022-10-26T15:51:20;8.93;;;2.50;;
48363;SDS011;34170;54.364;18.582;2022-10-26T15:53:48;9.02;;;2.67;;
48363;SDS011;34170;54.364;18.582;2022-10-26T15:56:16;6.80;;;2.80;;
48363;SDS011;34170;54.364;18.582;2022-10-26T15:58:46;13.27;;;3.55;;
48363;SDS011;34170;54.364;18.582;2022-10-26T16:01:20;8.20;;;2.92;;
48363;SDS011;34170;54.364;18.582;2022-10-26T16:03:50;8.70;;;3.33;;
48363;SDS011;34170;54.364;18.582;2022-10-26T16:06:25;11.50;;;3.65;;
48363;SDS011;34170;54.364;18.582;2022-10-26T16:08:59;8.45;;;3.63;;
48363;SDS011;34170;54.364;18.582;2022-10-26T16:11:28;10.30;;;4.03;;
48363;SDS011;34170;54.364;18.582;2022-10-26T16:13:56;10.50;;;3.85;;
48363;SDS011;34170;54.364;18.582;2022-10-26T16:16:29;6.57;;;3.05;;
48363;SDS011;34170;54.364;18.582;2022-10-26T16:18:56;10.50;;;3.75;;
48363;SDS011;34170;54.364;18.582;2022-10-26T16:21:44;11.10;;;3.45;;
48363;SDS011;34170;54.364;18.582;2022-10-26T16:24:11;7.22;;;3.05;;
48363;SDS011;34170;54.364;18.582;2022-10-26T16:26:38;8.68;;;3.25;;
48363;SDS011;34170;54.364;18.582;2022-10-26T16:29:06;7.32;;;3.45;;
48363;SDS011;34170;54.364;18.582;2022-10-26T16:31:33;10.15;;;3.80;;
48363;SDS011;34170;54.364;18.582;2022-10-26T16:34:00;7.57;;;3.28;;
48363;SDS011;34170;54.364;18.582;2022-10-26T16:36:30;7.85;;;3.45;;
48363;SDS011;34170;54.364;18.582;2022-10-26T16:39:00;9.88;;;3.03;;
48363;SDS011;34170;54.364;18.582;2022-10-26T16:41:32;10.98;;;3.53;;
48363;SDS011;34170;54.364;18.582;2022-10-26T16:44:00;8.23;;;3.97;;
48363;SDS011;34170;54.364;18.582;2022-10-26T16:46:27;8.60;;;3.78;;
48363;SDS011;34170;54.364;18.582;2022-10-26T16:48:55;10.90;;;3.58;;
48363;SDS011;34170;54.364;18.582;2022-10-26T16:51:23;12.63;;;4.47;;
48363;SDS011;34170;54.364;18.582;2022-10-26T16:53:53;7.30;;;3.40;;
48363;SDS011;34170;54.364;18.582;2022-10-26T16:56:23;8.82;;;4.35;;
48363;SDS011;34170;54.364;18.582;2022-10-26T16:58:52;9.75;;;4.55;;
48363;SDS011;34170;54.364;18.582;2022-10-26T17:01:20;11.77;;;4.70;;
48363;SDS011;34170;54.364;18.582;2022-10-26T17:03:48;40.40;;;23.23;;
48363;SDS011;34170;54.364;18.582;2022-10-26T17:06:17;106.85;;;74.88;;
48363;SDS011;34170;54.364;18.582;2022-10-26T17:08:45;14.15;;;7.30;;
48363;SDS011;34170;54.364;18.582;2022-10-26T17:11:17;11.70;;;5.38;;
48363;SDS011;34170;54.364;18.582;2022-10-26T17:13:46;15.25;;;4.93;;
48363;SDS011;34170;54.364;18.582;2022-10-26T17:16:15;10.00;;;5.10;;
48363;SDS011;34170;54.364;18.582;2022-10-26T17:18:44;11.65;;;5.78;;
48363;SDS011;34170;54.364;18.582;2022-10-26T17:21:13;12.68;;;4.95;;
48363;SDS011;34170;54.364;18.582;2022-10-26T17:23:44;11.63;;;5.20;;
48363;SDS011;34170;54.364;18.582;2022-10-26T17:26:12;13.00;;;5.88;;
48363;SDS011;34170;54.364;18.582;2022-10-26T17:28:40;11.93;;;4.82;;